Time;durP1;ratioP1;P1;durP2;ratioP2;P2;SDS_P1;SDS_P2;PMS_P1;PMS_P2;Temp;Humidity;BMP_temperature;BMP_pressure;BME280_temperature;BME280_humidity;BME280_pressure;Samples;Min_cycle;Max_cycle;Signal;HPM_P1;HPM_P2
2021/05/22 00:01:06;;;;;;;9.57;1.40;;;;;;;10.71;97.81;99344.94;5208669;28;20067;-78
2021/05/22 00:03:36;;;;;;;7.90;1.60;;;;;;;10.99;96.57;99350.31;5228097;28;20031;-77
2021/05/22 00:06:07;;;;;;;9.05;1.70;;;;;;;10.98;96.59;99353.81;5228647;28;20174;-78
2021/05/22 00:08:37;;;;;;;9.25;1.75;;;;;;;10.96;97.22;99347.84;5229431;28;20044;-77
2021/05/22 00:11:07;;;;;;;8.50;1.70;;;;;;;11.05;96.74;99343.78;5227102;28;20025;-78
2021/05/22 00:13:37;;;;;;;7.75;1.33;;;;;;;11.05;95.09;99333.31;5226905;28;20025;-78
2021/05/22 00:16:08;;;;;;;5.90;1.30;;;;;;;11.14;95.53;99338.00;5224707;28;20033;-78
2021/05/22 00:18:38;;;;;;;7.40;1.55;;;;;;;11.14;93.41;99335.41;5225483;28;20028;-78
2021/05/22 00:21:09;;;;;;;5.28;1.45;;;;;;;11.07;92.96;99328.84;5225047;28;20029;-78
2021/05/22 00:23:39;;;;;;;10.25;1.60;;;;;;;11.12;93.48;99326.81;5224990;28;20025;-78
2021/05/22 00:26:09;;;;;;;8.38;1.65;;;;;;;11.24;92.37;99331.34;5226057;28;20039;-78
2021/05/22 00:28:40;;;;;;;8.52;1.40;;;;;;;11.31;92.51;99323.97;5226303;28;20028;-78
2021/05/22 00:31:10;;;;;;;7.68;1.60;;;;;;;11.14;93.56;99326.72;5226539;28;20020;-78
2021/05/22 00:33:40;;;;;;;6.03;1.30;;;;;;;11.14;95.19;99334.56;5225261;28;20040;-78
2021/05/22 00:36:11;;;;;;;10.15;1.80;;;;;;;11.10;94.45;99322.59;5226108;28;20103;-78
2021/05/22 00:38:41;;;;;;;6.15;1.45;;;;;;;10.97;96.71;99326.84;5225582;28;20073;-78
2021/05/22 00:41:11;;;;;;;7.65;1.42;;;;;;;11.02;95.96;99336.13;5224678;28;20100;-78
2021/05/22 00:43:42;;;;;;;7.80;1.63;;;;;;;10.95;97.14;99338.31;5226024;28;20056;-78
2021/05/22 00:46:12;;;;;;;5.28;1.27;;;;;;;10.97;98.61;99341.69;5226459;28;20040;-78
2021/05/22 00:48:48;;;;;;;8.75;1.63;;;;;;;11.00;97.57;99331.06;5227455;28;20051;-77
2021/05/22 00:51:19;;;;;;;6.93;1.50;;;;;;;10.95;98.08;99341.78;5217603;28;20029;-77
2021/05/22 00:53:49;;;;;;;5.85;1.33;;;;;;;10.64;100.00;99347.03;5225042;28;20025;-77
2021/05/22 00:56:20;;;;;;;10.85;1.50;;;;;;;10.64;100.00;99348.78;5227561;28;20029;-78
2021/05/22 00:58:50;;;;;;;7.05;1.33;;;;;;;10.69;100.00;99347.59;5227183;28;20033;-78
2021/05/22 01:01:21;;;;;;;7.45;1.80;;;;;;;10.78;100.00;99341.03;5227189;28;20025;-78
2021/05/22 01:03:53;;;;;;;10.15;1.45;;;;;;;10.79;100.00;99337.50;5225368;28;20029;-77
2021/05/22 01:06:23;;;;;;;8.32;1.73;;;;;;;10.71;100.00;99331.88;5225466;28;20130;-77
2021/05/22 01:08:57;;;;;;;8.43;1.57;;;;;;;10.44;100.00;99320.31;5225865;28;20072;-77
2021/05/22 01:11:31;;;;;;;9.55;1.80;;;;;;;10.59;100.00;99320.31;5225934;28;20279;-77
2021/05/22 01:14:15;;;;;;;8.40;1.70;;;;;;;10.79;98.20;99306.97;5224041;28;20039;-78
2021/05/22 01:16:52;;;;;;;10.02;1.80;;;;;;;10.57;100.00;99316.09;5222646;28;20044;-78
2021/05/22 01:19:33;;;;;;;9.15;1.73;;;;;;;10.48;100.00;99314.84;5224544;28;20025;-77
2021/05/22 01:22:04;;;;;;;9.32;1.80;;;;;;;10.59;100.00;99306.41;5221797;28;20040;-78
2021/05/22 01:24:47;;;;;;;11.95;2.03;;;;;;;10.70;100.00;99311.88;5223373;28;20029;-78
2021/05/22 01:27:17;;;;;;;7.85;1.65;;;;;;;10.88;99.84;99323.91;5205837;28;20025;-77
2021/05/22 01:29:48;;;;;;;9.75;2.08;;;;;;;11.01;98.49;99317.06;5223584;28;20024;-78
2021/05/22 01:32:18;;;;;;;8.13;1.85;;;;;;;11.19;96.35;99314.22;5223993;28;20028;-78
2021/05/22 01:34:49;;;;;;;8.48;2.15;;;;;;;11.25;94.32;99322.56;5223197;28;20028;-78
2021/05/22 01:37:19;;;;;;;7.85;1.60;;;;;;;11.44;93.50;99317.91;5261017;23;20040;-81
2021/05/22 01:39:50;;;;;;;6.95;1.90;;;;;;;11.54;91.49;99324.31;5257652;28;21133;-81
2021/05/22 01:42:20;;;;;;;9.45;1.98;;;;;;;11.47;92.27;99315.13;5249460;28;20077;-81
2021/05/22 01:44:51;;;;;;;8.80;1.85;;;;;;;11.49;93.02;99320.28;5251531;28;20024;-79
2021/05/22 01:47:24;;;;;;;13.35;1.90;;;;;;;11.45;91.72;99324.84;5234112;28;20039;-79
2021/05/22 01:49:55;;;;;;;6.30;1.73;;;;;;;11.53;90.59;99314.78;5234281;28;20082;-78
2021/05/22 01:52:26;;;;;;;5.93;1.10;;;;;;;11.78;84.38;99304.53;5234027;28;20544;-78
2021/05/22 01:54:57;;;;;;;6.15;1.30;;;;;;;11.72;87.71;99309.31;5235146;28;20490;-78
2021/05/22 01:57:28;;;;;;;4.38;1.10;;;;;;;11.69;91.60;99305.13;5233717;28;20060;-78
2021/05/22 01:59:58;;;;;;;5.10;1.20;;;;;;;11.62;89.74;99297.72;5237417;28;20048;-79
2021/05/22 02:02:29;;;;;;;4.93;1.02;;;;;;;11.36;91.33;99296.63;5234265;28;20482;-79
2021/05/22 02:05:01;;;;;;;6.82;1.30;;;;;;;11.11;93.94;99304.19;5233348;28;20068;-78
2021/05/22 02:07:36;;;;;;;6.70;1.50;;;;;;;10.90;96.83;99309.84;5234033;28;20504;-78
2021/05/22 02:10:09;;;;;;;6.20;1.27;;;;;;;10.96;97.42;99299.03;5238429;28;20025;-79
2021/05/22 02:12:41;;;;;;;5.85;1.20;;;;;;;10.94;96.58;99310.50;5216324;28;20028;-78
2021/05/22 02:15:14;;;;;;;4.20;1.20;;;;;;;10.89;96.90;99320.38;5232916;28;20025;-78
2021/05/22 02:17:46;;;;;;;4.50;1.00;;;;;;;10.51;97.47;99317.28;5231239;28;20020;-78
2021/05/22 02:20:18;;;;;;;5.03;1.25;;;;;;;10.50;97.91;99314.78;5234741;28;20025;-78
2021/05/22 02:22:50;;;;;;;4.85;1.13;;;;;;;10.39;97.77;99306.69;5239192;28;20036;-78
2021/05/22 02:25:20;;;;;;;5.05;0.98;;;;;;;10.30;97.73;99312.38;5233367;28;20031;-78
2021/05/22 02:27:51;;;;;;;4.15;0.95;;;;;;;10.18;98.21;99313.06;5235511;28;20099;-78
2021/05/22 02:30:22;;;;;;;3.55;0.77;;;;;;;10.14;98.36;99322.00;5233600;28;20109;-78
2021/05/22 02:32:54;;;;;;;4.18;0.82;;;;;;;10.18;99.55;99328.75;5235040;28;20028;-78
2021/05/22 02:35:26;;;;;;;5.38;0.90;;;;;;;10.26;98.78;99322.19;5235625;28;20463;-79
2021/05/22 02:37:57;;;;;;;5.88;1.13;;;;;;;10.18;99.61;99328.75;5233995;28;20028;-79
2021/05/22 02:40:30;;;;;;;2.75;0.80;;;;;;;10.29;98.53;99327.22;5236461;28;20120;-78
2021/05/22 02:43:04;;;;;;;2.92;0.70;;;;;;;10.39;97.63;99324.97;5232200;28;20679;-79
2021/05/22 02:45:40;;;;;;;4.07;0.80;;;;;;;10.24;98.43;99339.69;5235242;28;20032;-78
2021/05/22 02:48:14;;;;;;;;;;;;;;;10.27;98.48;99333.44;5234612;28;20040;-79
2021/05/22 02:50:46;;;;;;;4.38;1.05;;;;;;;10.25;97.19;99332.69;5233920;28;20496;-78
2021/05/22 02:53:22;;;;;;;4.72;0.98;;;;;;;10.22;97.55;99330.25;5235216;28;20029;-79
2021/05/22 02:55:53;;;;;;;3.38;0.80;;;;;;;10.05;98.53;99323.34;5235000;28;20027;-78
2021/05/22 02:58:24;;;;;;;2.00;0.60;;;;;;;10.25;97.33;99319.63;5233733;28;20032;-79
2021/05/22 03:00:54;;;;;;;3.15;0.70;;;;;;;10.10;99.81;99315.25;5227903;28;20111;-78
2021/05/22 03:03:24;;;;;;;5.20;1.10;;;;;;;10.10;98.91;99317.84;5217803;28;20047;-79
2021/05/22 03:05:56;;;;;;;3.88;0.93;;;;;;;10.03;99.01;99319.94;5233493;28;20103;-79
2021/05/22 03:08:27;;;;;;;4.65;0.80;;;;;;;9.95;99.42;99326.47;5235784;28;20063;-78
2021/05/22 03:10:58;;;;;;;2.63;0.70;;;;;;;9.98;98.25;99319.31;5231783;28;20029;-79
2021/05/22 03:13:28;;;;;;;3.60;0.73;;;;;;;10.09;97.96;99319.63;5235418;28;20021;-78
2021/05/22 03:15:58;;;;;;;2.60;0.80;;;;;;;10.04;97.74;99319.03;5231795;28;20108;-78
2021/05/22 03:18:29;;;;;;;3.00;0.80;;;;;;;9.93;98.48;99317.88;5231558;28;20094;-79
2021/05/22 03:21:00;;;;;;;3.83;0.80;;;;;;;9.87;99.30;99324.28;5235694;28;20024;-80
2021/05/22 03:23:30;;;;;;;5.15;0.80;;;;;;;9.91;98.33;99328.41;5231620;28;20032;-79
2021/05/22 03:26:00;;;;;;;3.28;0.70;;;;;;;9.94;97.74;99325.63;5234918;28;20032;-79
2021/05/22 03:28:31;;;;;;;3.63;0.40;;;;;;;10.03;97.59;99325.16;5231960;28;20098;-78
2021/05/22 03:31:02;;;;;;;2.65;0.55;;;;;;;9.96;99.03;99339.44;5234796;28;20058;-79
2021/05/22 03:33:32;;;;;;;4.25;0.80;;;;;;;10.01;97.91;99339.19;5234647;28;20531;-78
2021/05/22 03:36:03;;;;;;;4.78;0.80;;;;;;;10.06;96.93;99335.47;5232862;28;20090;-79
2021/05/22 03:38:33;;;;;;;2.75;0.63;;;;;;;10.01;97.38;99331.38;5234479;28;20025;-79
2021/05/22 03:41:04;;;;;;;3.05;0.80;;;;;;;10.13;97.35;99331.59;5231638;28;20032;-79
2021/05/22 03:43:34;;;;;;;3.35;0.80;;;;;;;10.11;96.47;99343.03;5234263;28;20037;-79
2021/05/22 03:46:04;;;;;;;2.70;0.70;;;;;;;10.14;96.64;99337.66;5232080;28;20032;-79
2021/05/22 03:48:34;;;;;;;3.03;0.68;;;;;;;9.97;98.25;99340.28;5216393;28;20803;-79
2021/05/22 03:51:05;;;;;;;1.92;0.55;;;;;;;10.16;96.83;99347.09;5231859;28;20032;-79
2021/05/22 03:53:35;;;;;;;2.58;0.60;;;;;;;10.15;95.72;99347.19;5234631;28;20999;-78
2021/05/22 03:56:05;;;;;;;3.95;0.70;;;;;;;10.18;95.64;99345.22;5233795;28;20036;-78
2021/05/22 03:58:36;;;;;;;3.33;0.80;;;;;;;10.31;96.06;99340.22;5232153;28;20107;-79
2021/05/22 04:01:06;;;;;;;3.80;0.88;;;;;;;10.32;94.79;99341.91;5215335;28;20025;-79
2021/05/22 04:03:36;;;;;;;3.80;0.98;;;;;;;10.49;93.83;99337.41;5235572;28;20024;-79
2021/05/22 04:06:07;;;;;;;3.50;0.90;;;;;;;10.53;94.78;99336.31;5232252;28;20077;-79
2021/05/22 04:08:37;;;;;;;3.72;0.60;;;;;;;10.44;95.62;99335.97;5232335;28;20061;-78
2021/05/22 04:11:07;;;;;;;3.88;0.88;;;;;;;10.52;94.53;99344.25;5232459;28;20041;-79
2021/05/22 04:13:37;;;;;;;4.45;0.88;;;;;;;10.55;95.66;99346.69;5231999;28;20021;-79
2021/05/22 04:16:08;;;;;;;3.80;0.80;;;;;;;10.64;93.84;99343.56;5233735;28;20028;-79
2021/05/22 04:18:38;;;;;;;2.50;0.75;;;;;;;10.71;92.98;99350.16;5232207;28;20049;-78
2021/05/22 04:21:08;;;;;;;4.82;0.75;;;;;;;10.81;92.71;99341.72;5233247;28;20884;-79
2021/05/22 04:23:40;;;;;;;4.18;0.93;;;;;;;10.74;94.34;99353.44;5231657;28;20047;-78
2021/05/22 04:26:10;;;;;;;3.90;0.80;;;;;;;10.85;93.25;99353.66;5232681;28;20044;-78
2021/05/22 04:28:41;;;;;;;4.18;1.00;;;;;;;11.06;92.05;99357.69;5231448;28;20029;-78
2021/05/22 04:31:11;;;;;;;7.03;1.15;;;;;;;11.10;92.45;99346.97;5229845;28;20075;-79
2021/05/22 04:33:42;;;;;;;5.97;1.20;;;;;;;11.20;92.43;99345.53;5225700;28;20095;-79
2021/05/22 04:36:13;;;;;;;4.53;0.85;;;;;;;10.96;92.16;99342.59;5233887;28;20493;-79
2021/05/22 04:38:43;;;;;;;4.35;0.80;;;;;;;11.27;91.86;99353.84;5232733;28;20027;-78
2021/05/22 04:41:13;;;;;;;5.13;1.00;;;;;;;11.09;92.63;99353.13;5231860;28;20102;-78
2021/05/22 04:43:44;;;;;;;7.57;1.20;;;;;;;11.03;92.53;99357.84;5232104;28;20186;-79
2021/05/22 04:46:14;;;;;;;4.25;0.95;;;;;;;11.37;91.01;99353.22;5232491;28;20040;-79
2021/05/22 04:48:44;;;;;;;4.25;0.93;;;;;;;11.54;90.63;99360.94;5232784;28;20031;-79
2021/05/22 04:51:16;;;;;;;7.97;1.00;;;;;;;11.41;90.13;99356.53;5232322;28;20028;-79
2021/05/22 04:53:46;;;;;;;3.97;1.02;;;;;;;11.28;91.33;99368.63;5233378;28;20024;-79
2021/05/22 04:56:16;;;;;;;3.95;0.88;;;;;;;11.32;91.38;99370.97;5231246;28;20605;-79
2021/05/22 04:58:47;;;;;;;4.20;0.90;;;;;;;11.59;89.96;99373.78;5232883;28;20029;-79
2021/05/22 05:01:17;;;;;;;6.65;1.17;;;;;;;11.56;89.81;99376.56;5231743;28;20033;-80
2021/05/22 05:03:47;;;;;;;5.20;1.13;;;;;;;11.80;89.80;99375.97;5215495;28;20028;-79
2021/05/22 05:06:18;;;;;;;2.88;0.70;;;;;;;12.53;86.15;99365.31;5233736;28;20463;-79
2021/05/22 05:08:49;;;;;;;3.85;1.00;;;;;;;12.74;85.05;99369.19;5214392;28;20397;-79
2021/05/22 05:11:19;;;;;;;5.28;1.13;;;;;;;12.43;86.01;99364.19;5232675;28;20860;-79
2021/05/22 05:13:49;;;;;;;3.67;1.40;;;;;;;12.42;86.88;99357.28;5231761;28;20043;-79
2021/05/22 05:16:20;;;;;;;5.57;1.00;;;;;;;13.30;83.06;99348.03;5233212;28;20024;-79
2021/05/22 05:18:51;;;;;;;6.87;1.03;;;;;;;16.08;72.90;99351.34;5231876;28;20546;-80
2021/05/22 05:21:21;;;;;;;7.38;1.02;;;;;;;18.44;67.71;99357.16;5233449;28;20263;-80
2021/05/22 05:23:52;;;;;;;3.58;0.90;;;;;;;20.71;61.42;99343.81;5236417;28;20090;-81
2021/05/22 05:26:22;;;;;;;4.05;0.90;;;;;;;21.29;58.15;99337.19;5217442;28;20025;-81
2021/05/22 05:28:52;;;;;;;3.80;0.85;;;;;;;21.53;56.82;99341.84;5237264;28;20035;-81
2021/05/22 05:31:22;;;;;;;3.33;0.90;;;;;;;22.19;55.71;99335.06;5234595;28;20048;-81
2021/05/22 05:33:53;;;;;;;3.93;1.00;;;;;;;21.82;55.51;99342.47;5236753;28;20047;-81
2021/05/22 05:36:23;;;;;;;6.07;1.10;;;;;;;20.03;59.37;99342.53;5238180;28;20308;-81
2021/05/22 05:38:53;;;;;;;3.77;0.87;;;;;;;21.02;56.80;99342.53;5234733;28;20358;-81
2021/05/22 05:41:24;;;;;;;5.90;1.23;;;;;;;20.61;58.72;99341.38;5236912;28;20675;-81
2021/05/22 05:43:54;;;;;;;4.53;1.10;;;;;;;21.16;57.27;99338.50;5215921;28;20329;-80
2021/05/22 05:46:24;;;;;;;2.95;1.00;;;;;;;20.62;58.17;99343.03;5237070;28;20035;-80
2021/05/22 05:48:55;;;;;;;4.72;1.10;;;;;;;20.84;58.60;99344.31;5234451;28;20035;-81
2021/05/22 05:51:25;;;;;;;6.00;1.25;;;;;;;20.15;58.89;99334.25;5236776;28;20400;-80
2021/05/22 05:53:55;;;;;;;5.72;1.38;;;;;;;19.14;61.70;99353.41;5235124;28;20520;-80
2021/05/22 05:56:25;;;;;;;5.43;1.13;;;;;;;19.54;61.40;99340.06;5234428;28;20056;-80
2021/05/22 05:58:56;;;;;;;6.27;1.30;;;;;;;19.06;62.61;99353.28;5237345;28;20021;-80
2021/05/22 06:01:26;;;;;;;7.22;1.40;;;;;;;19.04;61.58;99359.66;5236358;28;20283;-80
2021/05/22 06:03:56;;;;;;;5.15;1.23;;;;;;;18.97;63.14;99356.72;5238097;28;20051;-80
2021/05/22 06:06:27;;;;;;;5.72;1.02;;;;;;;18.42;64.17;99345.88;5238902;28;20466;-80
2021/05/22 06:08:58;;;;;;;6.50;1.40;;;;;;;17.70;65.99;99360.06;5233428;28;20125;-80
2021/05/22 06:11:30;;;;;;;5.28;1.42;;;;;;;17.42;66.91;99349.25;5236754;28;20462;-80
2021/05/22 06:14:00;;;;;;;6.25;1.35;;;;;;;17.78;64.74;99354.94;5233378;28;20028;-80
2021/05/22 06:16:34;;;;;;;6.88;1.20;;;;;;;17.72;67.73;99349.34;5236838;28;20024;-79
2021/05/22 06:19:04;;;;;;;6.05;1.20;;;;;;;17.83;66.00;99344.00;5234356;28;20086;-80
2021/05/22 06:21:37;;;;;;;6.30;1.57;;;;;;;17.41;65.76;99343.13;5236945;28;20020;-80
2021/05/22 06:24:09;;;;;;;5.28;1.30;;;;;;;18.64;64.08;99342.16;5235150;28;20814;-79
2021/05/22 06:26:39;;;;;;;7.72;1.50;;;;;;;17.95;63.70;99353.50;5219029;28;20021;-79
2021/05/22 06:29:09;;;;;;;6.50;1.30;;;;;;;18.30;63.73;99356.66;5220087;28;20039;-79
2021/05/22 06:31:40;;;;;;;6.45;1.30;;;;;;;17.49;65.33;99358.34;5233156;28;20524;-79
2021/05/22 06:34:11;;;;;;;8.25;1.27;;;;;;;17.29;65.89;99351.22;5237473;28;20017;-80
2021/05/22 06:36:41;;;;;;;6.88;1.50;;;;;;;18.44;64.74;99351.84;5235786;28;20546;-78
2021/05/22 06:39:12;;;;;;;9.30;1.73;;;;;;;18.67;63.73;99333.97;5236320;28;20036;-79
2021/05/22 06:41:42;;;;;;;6.38;1.45;;;;;;;19.26;62.70;99344.41;5236155;28;20025;-81
2021/05/22 06:44:20;;;;;;;5.93;1.42;;;;;;;19.63;61.16;99339.25;5242234;28;20025;-81
2021/05/22 06:46:51;;;;;;;5.88;1.17;;;;;;;20.02;60.04;99339.06;5237441;28;20024;-81
2021/05/22 06:49:22;;;;;;;5.75;1.30;;;;;;;20.02;59.86;99347.03;5228536;28;20082;-80
2021/05/22 06:51:52;;;;;;;6.60;1.42;;;;;;;19.59;60.49;99338.69;5238832;28;20028;-79
2021/05/22 06:54:22;;;;;;;6.50;1.40;;;;;;;19.75;59.47;99341.59;5241027;28;20601;-79
2021/05/22 06:56:53;;;;;;;6.70;1.27;;;;;;;19.92;59.80;99326.78;5237621;28;20527;-79
2021/05/22 06:59:23;;;;;;;7.78;1.60;;;;;;;19.29;59.88;99340.66;5238334;28;20030;-80
2021/05/22 07:01:53;;;;;;;5.40;1.20;;;;;;;20.50;60.02;99339.72;5235170;28;20031;-80
2021/05/22 07:04:23;;;;;;;7.68;1.23;;;;;;;21.30;56.76;99330.03;5238030;28;20302;-81
2021/05/22 07:06:54;;;;;;;8.53;1.50;;;;;;;19.43;60.20;99327.81;5238769;28;20072;-80
2021/05/22 07:09:24;;;;;;;4.25;1.27;;;;;;;19.39;60.30;99341.47;5238135;28;20355;-79
2021/05/22 07:11:54;;;;;;;6.17;1.20;;;;;;;19.49;59.39;99329.06;5238854;28;20108;-79
2021/05/22 07:14:26;;;;;;;3.47;1.10;;;;;;;19.80;58.43;99323.44;5215431;28;20275;-80
2021/05/22 07:16:58;;;;;;;5.03;1.10;;;;;;;20.66;57.96;99323.16;5234259;28;20029;-82
2021/05/22 07:19:28;;;;;;;5.68;1.30;;;;;;;20.56;59.50;99312.59;5238108;28;20039;-82
2021/05/22 07:21:59;;;;;;;7.35;1.20;;;;;;;21.09;56.44;99309.06;5229903;28;20021;-80
2021/05/22 07:24:29;;;;;;;4.68;1.20;;;;;;;21.26;55.93;99318.03;5236648;28;20032;-79
2021/05/22 07:27:00;;;;;;;7.43;1.30;;;;;;;20.98;56.19;99324.38;5233305;28;20032;-79
2021/05/22 07:29:30;;;;;;;8.93;1.45;;;;;;;21.13;57.71;99322.88;5214672;28;20111;-82
2021/05/22 07:32:01;;;;;;;6.28;1.02;;;;;;;21.89;54.51;99308.94;5236329;28;20111;-80
2021/05/22 07:34:33;;;;;;;4.80;1.40;;;;;;;22.89;53.66;99299.13;5231090;28;20024;-80
2021/05/22 07:37:04;;;;;;;5.70;1.25;;;;;;;20.88;55.34;99319.13;5246035;22;20307;-79
2021/05/22 07:39:35;;;;;;;4.55;1.30;;;;;;;20.05;55.84;99317.56;5195274;28;20616;-78
2021/05/22 07:42:06;;;;;;;5.25;1.50;;;;;;;21.05;54.80;99309.53;5202491;28;20112;-77
2021/05/22 07:44:36;;;;;;;3.80;1.00;;;;;;;21.92;52.91;99313.94;5201074;28;20025;-79
2021/05/22 07:47:06;;;;;;;7.22;1.23;;;;;;;22.01;52.14;99315.66;5200615;28;20028;-79
2021/05/22 07:49:37;;;;;;;7.97;1.20;;;;;;;22.35;53.89;99321.84;5216953;28;20030;-78
2021/05/22 07:52:10;;;;;;;6.22;1.30;;;;;;;20.48;54.61;99309.81;5200794;28;20285;-80
2021/05/22 07:54:41;;;;;;;4.68;1.30;;;;;;;20.32;55.92;99306.97;5209326;28;20033;-78
2021/05/22 07:57:12;;;;;;;4.97;1.20;;;;;;;21.48;54.08;99309.56;5211461;28;20025;-79
2021/05/22 07:59:43;;;;;;;3.80;1.35;;;;;;;22.86;53.53;99298.59;5210410;28;20029;-79
2021/05/22 08:02:13;;;;;;;5.80;1.10;;;;;;;22.05;52.91;99299.22;5208922;28;20171;-79
2021/05/22 08:04:44;;;;;;;6.88;1.30;;;;;;;23.95;51.26;99294.53;5200333;28;20530;-78
2021/05/22 08:07:14;;;;;;;6.05;1.15;;;;;;;23.88;50.62;99293.53;5210872;28;20475;-78
2021/05/22 08:09:44;;;;;;;5.32;1.30;;;;;;;22.98;52.44;99286.66;5196873;28;20104;-78
2021/05/22 08:12:15;;;;;;;7.20;1.15;;;;;;;22.24;52.21;99291.00;5212518;28;20029;-78
2021/05/22 08:14:45;;;;;;;4.90;1.35;;;;;;;19.93;56.09;99297.44;5192818;28;20029;-77
2021/05/22 08:17:17;;;;;;;6.43;1.20;;;;;;;18.76;57.90;99308.34;5210663;28;20025;-77
2021/05/22 08:19:48;;;;;;;7.40;1.80;;;;;;;17.90;61.39;99310.78;5210402;28;20503;-77
2021/05/22 08:22:18;;;;;;;4.25;1.23;;;;;;;17.43;62.87;99312.16;5216920;28;20099;-77
2021/05/22 08:24:49;;;;;;;6.57;1.80;;;;;;;16.77;65.91;99315.97;5218518;28;20029;-80
2021/05/22 08:27:21;;;;;;;10.13;2.33;;;;;;;17.19;65.87;99313.31;5217814;28;20037;-80
2021/05/22 08:29:51;;;;;;;9.13;1.80;;;;;;;19.00;59.94;99311.47;5218039;28;20017;-80
2021/05/22 08:32:21;;;;;;;5.60;1.10;;;;;;;18.39;60.74;99310.88;5214095;28;20030;-78
2021/05/22 08:34:53;;;;;;;6.43;1.30;;;;;;;18.55;60.16;99312.03;5210257;28;20056;-78
2021/05/22 08:37:24;;;;;;;4.05;1.10;;;;;;;18.15;62.15;99320.94;5208268;28;20105;-78
2021/05/22 08:39:54;;;;;;;4.57;1.20;;;;;;;17.95;61.93;99320.00;5217714;28;20108;-78
2021/05/22 08:42:27;;;;;;;5.72;1.02;;;;;;;17.18;63.49;99328.28;5197394;28;20025;-81
2021/05/22 08:45:20;;;;;;;5.88;1.15;;;;;;;17.19;63.86;99319.44;5200640;28;20482;-80
2021/05/22 08:47:53;;;;;;;5.38;1.20;;;;;;;17.00;64.42;99319.25;5215849;28;20101;-80
2021/05/22 08:50:23;;;;;;;5.18;1.23;;;;;;;16.62;66.86;99315.41;5219282;28;20036;-80
2021/05/22 08:52:55;;;;;;;6.82;1.30;;;;;;;16.78;64.89;99311.41;5218825;28;20462;-80
2021/05/22 08:55:25;;;;;;;4.88;1.15;;;;;;;17.29;64.56;99320.34;5217224;28;20018;-79
2021/05/22 08:57:55;;;;;;;4.97;1.30;;;;;;;19.68;60.06;99306.03;5218259;28;20024;-79
2021/05/22 09:00:27;;;;;;;7.28;1.20;;;;;;;19.70;58.08;99298.78;5201383;28;20047;-79
2021/05/22 09:02:57;;;;;;;6.32;1.02;;;;;;;20.05;57.45;99306.94;5213874;28;20091;-79
2021/05/22 09:05:29;;;;;;;4.57;1.05;;;;;;;19.48;59.48;99307.00;5199854;28;20107;-82
2021/05/22 09:08:03;;;;;;;4.68;1.20;;;;;;;18.93;57.94;99302.38;5213416;28;20044;-80
2021/05/22 09:11:00;;;;;;;6.90;1.10;;;;;;;19.58;58.62;99299.91;5220261;28;20017;-78
2021/05/22 09:13:32;;;;;;;3.75;1.25;;;;;;;19.57;58.53;99305.31;5198496;28;20875;-80
2021/05/22 09:16:09;;;;;;;3.53;1.10;;;;;;;18.94;59.58;99305.88;5215868;28;20032;-81
2021/05/22 09:18:46;;;;;;;5.55;1.20;;;;;;;18.83;60.43;99320.06;5196163;28;20025;-79
2021/05/22 09:21:16;;;;;;;7.20;1.05;;;;;;;18.54;60.53;99320.13;5197166;28;20120;-79
2021/05/22 09:23:50;;;;;;;5.60;0.98;;;;;;;19.16;60.91;99314.44;5210678;28;20085;-79
2021/05/22 09:26:34;;;;;;;4.68;1.10;;;;;;;18.91;60.46;99308.81;5197492;28;20074;-79
2021/05/22 09:29:06;;;;;;;6.97;1.42;;;;;;;17.87;62.07;99333.03;5196194;28;20033;-78
2021/05/22 09:31:37;;;;;;;4.85;1.17;;;;;;;16.73;66.49;99325.91;5199430;28;20026;-78
2021/05/22 09:34:09;;;;;;;9.38;1.20;;;;;;;16.87;66.10;99331.78;5195613;28;20060;-78
2021/05/22 09:36:45;;;;;;;7.13;1.20;;;;;;;17.06;65.38;99331.97;5208197;28;20025;-78
2021/05/22 09:39:20;;;;;;;7.72;1.00;;;;;;;16.54;65.38;99332.81;5198363;28;20021;-78
2021/05/22 09:41:50;;;;;;;7.03;1.15;;;;;;;16.88;66.04;99340.53;5215062;28;20039;-78
2021/05/22 09:44:25;;;;;;;4.70;1.10;;;;;;;16.61;65.62;99344.53;5213816;28;20025;-79
2021/05/22 09:47:00;;;;;;;7.93;1.10;;;;;;;16.77;66.30;99338.75;5196032;28;20367;-78
2021/05/22 09:49:33;;;;;;;4.00;1.00;;;;;;;16.56;65.42;99344.91;5209058;28;20116;-78
2021/05/22 09:52:12;;;;;;;6.75;1.08;;;;;;;16.27;66.29;99341.06;5215002;28;20021;-79
2021/05/22 09:54:52;;;;;;;3.97;0.90;;;;;;;16.19;67.53;99343.44;5196300;28;20079;-79
2021/05/22 09:57:31;;;;;;;5.57;0.98;;;;;;;16.36;68.09;99350.91;5215500;28;20637;-78
2021/05/22 10:00:05;;;;;;;5.05;1.00;;;;;;;16.36;68.56;99355.34;5190741;28;20025;-78
2021/05/22 10:02:43;;;;;;;6.18;1.00;;;;;;;15.91;68.38;99362.31;5215564;28;20122;-78
2021/05/22 10:05:28;;;;;;;7.28;1.20;;;;;;;16.11;68.72;99358.19;5204890;28;20036;-78
2021/05/22 10:08:02;;;;;;;7.80;1.00;;;;;;;16.32;68.05;99357.34;5212045;28;20024;-79
2021/05/22 10:10:45;;;;;;;6.20;1.10;;;;;;;16.28;66.53;99348.00;5209612;28;20406;-78
2021/05/22 10:13:18;;;;;;;11.27;1.20;;;;;;;16.09;67.79;99345.13;5197453;28;20028;-79
2021/05/22 10:15:51;;;;;;;6.80;1.20;;;;;;;16.30;69.31;99347.88;5219494;28;20031;-79
2021/05/22 10:18:24;;;;;;;4.03;1.00;;;;;;;16.28;69.45;99352.44;5218135;28;20360;-79
2021/05/22 10:20:57;;;;;;;7.07;1.35;;;;;;;16.66;67.87;99356.41;5201349;28;20036;-81
2021/05/22 10:23:28;;;;;;;4.55;0.88;;;;;;;17.25;66.48;99347.13;5217077;28;20041;-80
2021/05/22 10:25:59;;;;;;;3.05;0.90;;;;;;;17.34;67.60;99359.63;5202790;28;20054;-79
2021/05/22 10:28:29;;;;;;;5.93;1.00;;;;;;;17.34;65.32;99356.97;5214420;28;20100;-79
2021/05/22 10:31:00;;;;;;;3.97;0.93;;;;;;;17.51;64.15;99364.34;5202385;28;20182;-80
2021/05/22 10:33:35;;;;;;;6.95;1.20;;;;;;;17.94;64.60;99360.63;5199706;28;20030;-79
2021/05/22 10:36:05;;;;;;;3.45;0.98;;;;;;;17.43;66.21;99353.56;5182608;28;20118;-79
2021/05/22 10:38:38;;;;;;;8.52;1.10;;;;;;;16.80;68.62;99362.25;5197054;28;20037;-79
2021/05/22 10:41:15;;;;;;;4.75;0.95;;;;;;;16.13;69.78;99361.53;5215865;28;20020;-79
2021/05/22 10:44:00;;;;;;;5.82;1.00;;;;;;;16.38;70.24;99370.09;5217006;28;20024;-79
2021/05/22 10:46:31;;;;;;;5.55;0.75;;;;;;;16.06;71.68;99381.41;5209866;28;20030;-79
2021/05/22 10:49:02;;;;;;;3.42;0.80;;;;;;;16.16;70.63;99369.19;5214091;28;20033;-79
2021/05/22 10:51:37;;;;;;;5.53;0.80;;;;;;;15.68;71.46;99381.69;5214054;28;20144;-78
2021/05/22 10:54:14;;;;;;;4.10;0.70;;;;;;;15.70;71.51;99382.41;5216507;28;20412;-78
2021/05/22 10:57:07;;;;;;;4.30;0.88;;;;;;;15.85;70.26;99390.97;5216077;28;20083;-78
2021/05/22 10:59:39;;;;;;;5.97;0.80;;;;;;;16.21;69.85;99382.88;5192959;28;20483;-79
2021/05/22 11:02:38;;;;;;;5.95;0.70;;;;;;;16.24;69.81;99386.09;5198427;28;20044;-79
2021/05/22 11:05:21;;;;;;;3.03;0.80;;;;;;;15.91;70.77;99388.69;5187501;28;20033;-80
2021/05/22 11:08:06;;;;;;;4.85;0.85;;;;;;;15.96;69.81;99385.69;5207268;28;20389;-79
2021/05/22 11:10:48;;;;;;;5.63;0.82;;;;;;;16.58;70.98;99384.34;5213422;28;20406;-79
2021/05/22 11:13:22;;;;;;;3.65;0.60;;;;;;;17.12;69.20;99370.22;5199873;28;20039;-79
2021/05/22 11:15:57;;;;;;;5.40;1.10;;;;;;;17.32;68.95;99375.53;5198890;28;20021;-78
2021/05/22 11:18:33;;;;;;;3.45;0.90;;;;;;;17.32;69.12;99385.28;5219607;28;20448;-79
2021/05/22 11:21:18;;;;;;;6.32;1.00;;;;;;;17.33;69.53;99385.13;5227390;28;20048;-78
2021/05/22 11:24:01;;;;;;;5.60;1.03;;;;;;;16.36;69.40;99394.91;5217959;28;20052;-77
2021/05/22 11:26:53;;;;;;;2.60;0.70;;;;;;;16.13;68.59;99383.47;5227240;28;20060;-78
2021/05/22 11:29:59;;;;;;;3.10;0.88;;;;;;;15.78;71.04;99403.75;5233545;28;20033;-79
2021/05/22 11:32:50;;;;;;;3.13;0.75;;;;;;;15.91;71.14;99406.31;5225473;28;20510;-77
2021/05/22 11:35:27;;;;;;;6.47;0.85;;;;;;;15.83;69.01;99406.88;5218330;28;20036;-78
2021/05/22 11:38:13;;;;;;;5.85;0.73;;;;;;;15.99;73.60;99412.69;5218261;28;20025;-78
2021/05/22 11:40:43;;;;;;;4.30;0.80;;;;;;;15.52;76.77;99402.22;5213835;28;20033;-78
2021/05/22 11:43:23;;;;;;;5.63;0.90;;;;;;;15.20;75.61;99406.34;5219910;28;20036;-79
2021/05/22 11:45:55;;;;;;;4.50;0.88;;;;;;;15.04;77.25;99424.19;5189553;28;20041;-78
2021/05/22 11:48:44;;;;;;;3.25;0.70;;;;;;;15.17;78.14;99403.13;5203116;28;20029;-79
2021/05/22 11:51:26;;;;;;;5.45;0.90;;;;;;;15.13;76.90;99420.06;5189702;28;20411;-78
2021/05/22 11:54:02;;;;;;;2.40;0.68;;;;;;;15.18;78.73;99434.56;5212022;28;20433;-79
2021/05/22 11:56:35;;;;;;;3.28;0.93;;;;;;;14.98;79.57;99424.66;5208757;28;20029;-79
2021/05/22 11:59:07;;;;;;;4.43;0.70;;;;;;;14.61;79.84;99437.88;5193752;28;20506;-78